Time;durP1;ratioP1;P1;durP2;ratioP2;P2;SDS_P1;SDS_P2;PMS_P1;PMS_P2;Temp;Humidity;BMP_temperature;BMP_pressure;BME280_temperature;BME280_humidity;BME280_pressure;Samples;Min_cycle;Max_cycle;Signal;HPM_P1;HPM_P2
2024/03/02 00:00:12;;;;;;;53.72;19.83;;;;;;;7.71;100.00;99534.22;5097686;28;20080;-64
2024/03/02 00:02:42;;;;;;;46.92;18.88;;;;;;;7.69;100.00;99522.00;5097794;28;20066;-64
2024/03/02 00:05:07;;;;;;;55.47;22.77;;;;;;;7.74;100.00;99536.53;5098417;28;20030;-66
2024/03/02 00:07:33;;;;;;;52.22;21.85;;;;;;;7.81;100.00;99537.59;5098525;28;20044;-66
2024/03/02 00:10:00;;;;;;;55.58;21.98;;;;;;;8.01;100.00;99531.22;5098453;28;20047;-65
2024/03/02 00:12:25;;;;;;;55.47;21.98;;;;;;;7.97;100.00;99517.50;5098582;28;20043;-66
2024/03/02 00:14:51;;;;;;;54.00;20.15;;;;;;;8.04;100.00;99530.09;5097558;28;20341;-65
2024/03/02 00:17:25;;;;;;;45.90;19.55;;;;;;;7.99;100.00;99526.09;5097600;28;20035;-66
2024/03/02 00:19:51;;;;;;;51.85;22.00;;;;;;;8.05;100.00;99521.19;5097566;28;20347;-65
2024/03/02 00:22:16;;;;;;;53.65;22.15;;;;;;;8.07;100.00;99520.06;5097601;28;20038;-64
2024/03/02 00:24:42;;;;;;;56.20;22.27;;;;;;;8.16;100.00;99529.69;5097477;28;20043;-66
2024/03/02 00:27:12;;;;;;;56.35;23.15;;;;;;;8.15;100.00;99525.41;5098538;28;20035;-66
2024/03/02 00:29:40;;;;;;;56.05;21.05;;;;;;;8.15;100.00;99519.31;5098400;28;20040;-66
2024/03/02 00:32:13;;;;;;;49.75;20.63;;;;;;;8.11;100.00;99521.41;5098303;28;20059;-66
2024/03/02 00:34:38;;;;;;;53.70;21.85;;;;;;;8.18;100.00;99513.72;5098364;28;20234;-65
2024/03/02 00:37:04;;;;;;;54.55;20.25;;;;;;;8.21;100.00;99516.88;5097964;28;20117;-66
2024/03/02 00:39:30;;;;;;;46.40;20.65;;;;;;;8.36;100.00;99509.31;5098582;28;20329;-65
2024/03/02 00:41:55;;;;;;;52.25;21.00;;;;;;;8.46;100.00;99510.03;5097231;28;20361;-66
2024/03/02 00:44:26;;;;;;;58.35;23.67;;;;;;;8.35;100.00;99496.28;5097348;28;20036;-66
2024/03/02 00:46:52;;;;;;;61.97;21.73;;;;;;;8.48;100.00;99501.97;5097049;28;20050;-67
2024/03/02 00:49:23;;;;;;;56.45;20.98;;;;;;;8.36;100.00;99503.22;5097987;28;20051;-65
2024/03/02 00:51:50;;;;;;;55.25;21.88;;;;;;;8.31;100.00;99499.16;5098049;28;20028;-66
2024/03/02 00:54:20;;;;;;;48.13;19.50;;;;;;;8.32;100.00;99492.06;5097590;28;20043;-66
2024/03/02 00:56:47;;;;;;;52.80;21.77;;;;;;;8.40;100.00;99494.00;5098142;28;20031;-65
2024/03/02 00:59:13;;;;;;;49.53;20.23;;;;;;;8.44;100.00;99496.19;5097425;28;20036;-67
2024/03/02 01:01:38;;;;;;;53.67;19.88;;;;;;;8.35;100.00;99493.63;5097979;28;20043;-66
2024/03/02 01:04:05;;;;;;;52.58;20.58;;;;;;;8.32;100.00;99485.03;5097790;28;20394;-65
2024/03/02 01:06:30;;;;;;;52.30;20.00;;;;;;;8.25;100.00;99478.66;5097653;28;20036;-66
2024/03/02 01:08:56;;;;;;;53.38;21.65;;;;;;;8.34;100.00;99486.72;5097815;28;20071;-66
2024/03/02 01:11:21;;;;;;;57.45;21.80;;;;;;;8.29;100.00;99474.75;5098346;28;20203;-66
2024/03/02 01:13:47;;;;;;;59.60;21.92;;;;;;;8.21;100.00;99472.03;5101506;28;20098;-65
2024/03/02 01:16:13;;;;;;;52.30;19.80;;;;;;;8.32;100.00;99469.19;5101780;28;20035;-65
2024/03/02 01:18:39;;;;;;;55.90;19.08;;;;;;;8.32;100.00;99468.31;5100593;28;20411;-66
2024/03/02 01:21:04;;;;;;;54.33;20.90;;;;;;;8.19;100.00;99475.81;5099138;28;20062;-66
2024/03/02 01:23:30;;;;;;;56.72;21.67;;;;;;;8.14;100.00;99475.44;5101047;28;20252;-66
2024/03/02 01:25:55;;;;;;;53.17;21.00;;;;;;;8.27;100.00;99474.06;5100834;28;20398;-67
2024/03/02 01:28:21;;;;;;;50.58;20.23;;;;;;;8.30;100.00;99467.66;5101472;28;20036;-64
2024/03/02 01:30:47;;;;;;;52.20;20.52;;;;;;;8.13;100.00;99474.63;5100863;28;20268;-67
2024/03/02 01:33:13;;;;;;;50.58;21.15;;;;;;;8.23;100.00;99470.09;5100994;28;20051;-66
2024/03/02 01:35:38;;;;;;;50.85;18.55;;;;;;;8.27;100.00;99466.16;5095875;28;20054;-64
2024/03/02 01:38:06;;;;;;;43.80;19.60;;;;;;;8.39;100.00;99468.59;5100181;28;20052;-66
2024/03/02 01:40:33;;;;;;;48.15;21.52;;;;;;;8.23;100.00;99477.16;5100338;28;20040;-65
2024/03/02 01:42:59;;;;;;;48.10;18.95;;;;;;;8.12;100.00;99467.69;5100124;28;20341;-66
2024/03/02 01:45:24;;;;;;;47.55;19.77;;;;;;;8.15;100.00;99475.28;5100487;28;20051;-65
2024/03/02 01:47:50;;;;;;;47.95;17.75;;;;;;;8.04;100.00;99467.63;5099754;28;20043;-67
2024/03/02 01:50:24;;;;;;;48.40;18.60;;;;;;;7.95;100.00;99477.28;5101438;28;20044;-66
2024/03/02 01:52:49;;;;;;;49.15;18.35;;;;;;;8.00;100.00;99468.91;5097666;28;20108;-65
2024/03/02 01:55:15;;;;;;;50.45;20.42;;;;;;;8.11;100.00;99463.41;5101060;28;20036;-65
2024/03/02 01:57:40;;;;;;;53.50;21.30;;;;;;;8.16;100.00;99469.03;5091299;28;20268;-65
2024/03/02 02:00:06;;;;;;;49.45;22.05;;;;;;;8.02;100.00;99465.13;5100459;28;20236;-66
2024/03/02 02:02:32;;;;;;;56.25;23.17;;;;;;;8.13;100.00;99466.72;5095077;28;20043;-64
2024/03/02 02:04:57;;;;;;;53.05;21.45;;;;;;;8.05;100.00;99465.81;5100397;28;20040;-66
2024/03/02 02:07:23;;;;;;;51.30;20.35;;;;;;;8.02;100.00;99462.50;5089662;28;20043;-65
2024/03/02 02:09:48;;;;;;;50.58;20.33;;;;;;;8.12;100.00;99464.22;5099404;28;20047;-66
2024/03/02 02:12:15;;;;;;;51.78;19.88;;;;;;;7.99;100.00;99461.97;5099159;28;20085;-66
2024/03/02 02:14:48;;;;;;;47.20;20.42;;;;;;;8.20;100.00;99453.72;5099604;28;20036;-66
2024/03/02 02:17:14;;;;;;;53.00;20.58;;;;;;;8.06;100.00;99449.00;5100465;28;20036;-66
2024/03/02 02:19:41;;;;;;;47.83;20.85;;;;;;;8.08;100.00;99454.97;5099396;28;20137;-66
2024/03/02 02:22:06;;;;;;;49.15;20.17;;;;;;;8.14;100.00;99455.19;5098909;28;20225;-65
2024/03/02 02:24:31;;;;;;;52.78;21.58;;;;;;;8.23;100.00;99458.69;5098840;28;20036;-66
2024/03/02 02:26:57;;;;;;;50.70;19.65;;;;;;;8.24;100.00;99452.44;5097688;28;20560;-65
2024/03/02 02:29:22;;;;;;;53.03;19.15;;;;;;;8.20;100.00;99456.38;5099481;28;20036;-66
2024/03/02 02:31:48;;;;;;;47.17;19.88;;;;;;;8.20;100.00;99445.81;5100473;28;20027;-64
2024/03/02 02:34:14;;;;;;;48.03;19.10;;;;;;;8.20;100.00;99449.28;5090360;28;20039;-67
2024/03/02 02:36:40;;;;;;;49.13;20.42;;;;;;;8.25;100.00;99452.28;5100130;28;20089;-65
2024/03/02 02:39:10;;;;;;;48.08;17.83;;;;;;;8.22;100.00;99454.41;5099150;28;20036;-66
2024/03/02 02:41:36;;;;;;;45.05;18.35;;;;;;;8.21;100.00;99445.66;5099930;28;20036;-65
2024/03/02 02:44:01;;;;;;;44.13;19.65;;;;;;;8.23;100.00;99445.50;5098411;28;20294;-66
2024/03/02 02:46:27;;;;;;;46.10;18.92;;;;;;;8.05;100.00;99450.00;5099560;28;20043;-66
2024/03/02 02:48:53;;;;;;;46.53;19.23;;;;;;;8.15;100.00;99451.56;5093297;28;20040;-65
2024/03/02 02:51:19;;;;;;;45.80;20.83;;;;;;;8.22;100.00;99449.13;5099029;28;20051;-67
2024/03/02 02:53:44;;;;;;;46.83;18.92;;;;;;;8.26;100.00;99453.13;5098991;28;20066;-66
2024/03/02 02:56:10;;;;;;;48.28;19.40;;;;;;;8.32;100.00;99452.50;5098948;28;20036;-65
2024/03/02 02:58:35;;;;;;;43.92;18.27;;;;;;;8.37;100.00;99446.81;5099447;28;20046;-64
2024/03/02 03:01:01;;;;;;;38.30;17.60;;;;;;;8.35;100.00;99440.88;5098113;28;20070;-64
2024/03/02 03:03:26;;;;;;;43.45;17.08;;;;;;;8.11;100.00;99449.38;5098356;28;20036;-65
2024/03/02 03:05:52;;;;;;;44.67;19.17;;;;;;;8.25;100.00;99452.28;5098048;28;20051;-66
2024/03/02 03:08:17;;;;;;;46.78;18.27;;;;;;;8.30;100.00;99457.09;5099263;28;20362;-65
2024/03/02 03:10:43;;;;;;;54.78;21.08;;;;;;;8.37;100.00;99450.28;5097363;28;20098;-64
2024/03/02 03:13:09;;;;;;;48.95;20.48;;;;;;;8.32;100.00;99457.78;5098123;28;20103;-65
2024/03/02 03:15:36;;;;;;;51.00;19.33;;;;;;;8.50;100.00;99448.06;5093366;28;20039;-67
2024/03/02 03:18:03;;;;;;;45.85;18.08;;;;;;;8.50;100.00;99441.97;5098541;28;20058;-66
2024/03/02 03:20:29;;;;;;;49.33;18.05;;;;;;;8.57;100.00;99443.81;5098235;28;20036;-66
2024/03/02 03:22:55;;;;;;;55.72;20.58;;;;;;;8.71;100.00;99444.22;5098702;28;20043;-65
2024/03/02 03:25:20;;;;;;;44.40;19.15;;;;;;;8.72;100.00;99448.50;5098295;28;20036;-66
2024/03/02 03:27:46;;;;;;;44.40;18.25;;;;;;;8.68;100.00;99448.00;5098298;28;20031;-66
2024/03/02 03:30:11;;;;;;;45.60;20.92;;;;;;;8.48;100.00;99433.38;5098048;28;20334;-66
2024/03/02 03:32:37;;;;;;;46.10;18.15;;;;;;;8.43;100.00;99430.38;5098591;28;20221;-66
2024/03/02 03:35:03;;;;;;;47.97;19.75;;;;;;;8.63;100.00;99431.81;5097809;28;20051;-66
2024/03/02 03:37:32;;;;;;;49.28;20.20;;;;;;;8.73;100.00;99437.78;5097754;28;20039;-66
2024/03/02 03:40:09;;;;;;;43.22;18.65;;;;;;;8.75;100.00;99430.53;5098999;28;20107;-67
2024/03/02 03:42:36;;;;;;;40.88;17.35;;;;;;;8.60;100.00;99426.84;5098400;28;20063;-65
2024/03/02 03:45:02;;;;;;;49.90;19.23;;;;;;;8.52;100.00;99426.78;5099479;28;20092;-65
2024/03/02 03:47:28;;;;;;;49.42;18.85;;;;;;;8.54;100.00;99423.03;5088819;28;20044;-66
2024/03/02 03:49:53;;;;;;;49.80;18.52;;;;;;;8.43;100.00;99420.66;5099185;28;20066;-66
2024/03/02 03:52:18;;;;;;;53.63;19.90;;;;;;;8.30;100.00;99431.56;5097877;28;20039;-65
2024/03/02 03:54:44;;;;;;;44.50;18.73;;;;;;;8.54;100.00;99433.56;5098255;28;20349;-65
2024/03/02 03:57:10;;;;;;;48.28;18.15;;;;;;;8.57;100.00;99430.63;5097948;28;20027;-67
2024/03/02 03:59:37;;;;;;;46.10;19.90;;;;;;;8.33;100.00;99433.13;5098666;28;20040;-64
2024/03/02 04:02:03;;;;;;;46.30;18.63;;;;;;;8.41;100.00;99435.81;5092803;28;20070;-65
2024/03/02 04:04:28;;;;;;;47.45;18.80;;;;;;;8.43;100.00;99440.94;5097977;28;20340;-66
2024/03/02 04:06:54;;;;;;;49.28;20.17;;;;;;;8.59;100.00;99444.50;5097277;28;20051;-66
2024/03/02 04:09:19;;;;;;;54.70;20.13;;;;;;;8.88;100.00;99446.78;5098305;28;20080;-66
2024/03/02 04:11:45;;;;;;;44.10;19.30;;;;;;;8.83;100.00;99440.31;5093643;28;20059;-65
2024/03/02 04:14:12;;;;;;;41.80;17.48;;;;;;;8.59;100.00;99443.66;5095870;28;20322;-66
2024/03/02 04:16:38;;;;;;;54.35;20.58;;;;;;;8.84;100.00;99445.44;5097867;28;20228;-67
2024/03/02 04:19:03;;;;;;;46.08;18.08;;;;;;;9.02;100.00;99447.16;5097290;28;20040;-66
2024/03/02 04:21:29;;;;;;;48.22;19.58;;;;;;;9.22;100.00;99451.19;5098127;28;20384;-65
2024/03/02 04:23:58;;;;;;;45.97;19.30;;;;;;;9.35;100.00;99450.72;5096535;28;20339;-67
2024/03/02 04:26:25;;;;;;;50.90;18.90;;;;;;;9.49;100.00;99450.97;5098462;28;20047;-66
2024/03/02 04:28:50;;;;;;;51.97;20.55;;;;;;;9.62;100.00;99450.47;5092874;28;20036;-67
2024/03/02 04:31:16;;;;;;;48.33;20.70;;;;;;;9.63;100.00;99452.13;5098222;28;20035;-66
2024/03/02 04:33:42;;;;;;;46.55;18.30;;;;;;;9.36;100.00;99458.50;5097270;28;20341;-66
2024/03/02 04:36:11;;;;;;;41.50;18.65;;;;;;;9.36;100.00;99444.47;5097282;28;20260;-66
2024/03/02 04:38:37;;;;;;;40.33;17.27;;;;;;;8.89;100.00;99448.44;5091731;28;20387;-67
2024/03/02 04:41:05;;;;;;;46.00;18.88;;;;;;;8.73;100.00;99447.53;5098044;28;20031;-66
2024/03/02 04:43:31;;;;;;;37.63;16.25;;;;;;;8.61;100.00;99445.16;5097786;28;20066;-66
2024/03/02 04:45:58;;;;;;;42.35;18.48;;;;;;;8.56;100.00;99454.53;5097495;28;20028;-66
2024/03/02 04:48:23;;;;;;;36.30;16.45;;;;;;;8.37;100.00;99439.75;5101597;28;20103;-65
2024/03/02 04:50:49;;;;;;;39.38;17.58;;;;;;;8.41;100.00;99440.25;5101363;28;20046;-66
2024/03/02 04:53:14;;;;;;;39.63;17.17;;;;;;;8.43;100.00;99435.66;5102140;28;20314;-65
2024/03/02 04:58:06;;;;;;;41.28;18.10;;;;;;;8.46;100.00;99457.28;5102140;28;20071;-65
2024/03/02 05:00:32;;;;;;;46.13;15.18;;;;;;;8.24;100.00;99465.63;5091225;28;20043;-66
2024/03/02 05:02:57;;;;;;;43.60;18.08;;;;;;;8.26;100.00;99459.22;5101432;28;20218;-66
2024/03/02 05:05:23;;;;;;;37.72;17.55;;;;;;;8.19;100.00;99479.28;5102352;28;20040;-66
2024/03/02 05:07:48;;;;;;;41.53;18.30;;;;;;;8.03;100.00;99471.25;5099821;28;20349;-66
2024/03/02 05:10:14;;;;;;;49.42;20.20;;;;;;;8.27;100.00;99471.44;5101936;28;20032;-66
2024/03/02 05:15:09;;;;;;;45.40;18.52;;;;;;;7.99;100.00;99481.25;5100951;28;20085;-66
2024/03/02 05:17:36;;;;;;;55.00;22.45;;;;;;;8.08;100.00;99476.88;5099734;28;20267;-64
2024/03/02 05:20:03;;;;;;;49.85;19.88;;;;;;;8.08;100.00;99468.97;5100552;28;20055;-66
2024/03/02 05:22:28;;;;;;;48.72;19.60;;;;;;;8.20;100.00;99472.19;5100247;28;20222;-67
2024/03/02 05:24:54;;;;;;;56.15;20.58;;;;;;;8.06;100.00;99472.75;5100695;28;20039;-65
2024/03/02 05:27:19;;;;;;;55.15;20.55;;;;;;;8.04;100.00;99466.78;5100747;28;20039;-66
2024/03/02 05:29:45;;;;;;;64.25;22.35;;;;;;;8.12;100.00;99472.97;5100855;28;20043;-66
2024/03/02 05:32:10;;;;;;;57.60;22.23;;;;;;;8.09;100.00;99468.00;5095513;28;20105;-66
2024/03/02 05:34:36;;;;;;;54.45;22.88;;;;;;;8.22;100.00;99478.97;5100265;28;20050;-65
2024/03/02 05:37:01;;;;;;;61.80;24.15;;;;;;;8.15;100.00;99477.09;5100163;28;20048;-66
2024/03/02 05:39:27;;;;;;;58.03;20.75;;;;;;;8.15;100.00;99490.28;5100923;28;20070;-66
2024/03/02 05:41:52;;;;;;;63.85;24.55;;;;;;;8.23;100.00;99485.91;5101259;28;20706;-65
2024/03/02 05:44:19;;;;;;;64.10;23.80;;;;;;;8.24;100.00;99484.94;5100358;28;20040;-64
2024/03/02 05:46:45;;;;;;;62.42;24.55;;;;;;;8.23;100.00;99480.63;5101413;28;20031;-65
2024/03/02 05:49:10;;;;;;;58.00;21.27;;;;;;;8.48;100.00;99479.06;5099806;28;20099;-66
2024/03/02 05:51:36;;;;;;;57.60;21.77;;;;;;;8.35;100.00;99483.91;5101265;28;20039;-66
2024/03/02 05:54:01;;;;;;;63.55;22.67;;;;;;;8.30;100.00;99486.94;5099902;28;20334;-65
2024/03/02 05:56:27;;;;;;;56.97;21.83;;;;;;;8.35;100.00;99480.44;5100836;28;20043;-66
2024/03/02 05:59:07;;;;;;;59.60;22.40;;;;;;;8.43;100.00;99488.41;5099689;28;20040;-65
2024/03/02 06:01:33;;;;;;;57.85;20.77;;;;;;;8.29;100.00;99468.63;5100866;28;20073;-66
2024/03/02 06:03:58;;;;;;;60.70;21.13;;;;;;;8.32;100.00;99474.47;5100094;28;20040;-65
2024/03/02 06:06:24;;;;;;;50.33;21.60;;;;;;;8.40;100.00;99465.81;5090257;28;20043;-65
2024/03/02 06:08:50;;;;;;;52.47;19.45;;;;;;;8.47;100.00;99481.84;5099678;28;20349;-66
2024/03/02 06:11:16;;;;;;;58.45;23.13;;;;;;;8.57;100.00;99470.22;5099535;28;20066;-65
2024/03/02 06:13:41;;;;;;;59.60;22.67;;;;;;;8.68;100.00;99474.41;5100370;28;20296;-66
2024/03/02 06:16:08;;;;;;;51.80;19.92;;;;;;;8.46;100.00;99496.03;5099881;28;20036;-67
2024/03/02 06:18:34;;;;;;;56.63;21.85;;;;;;;8.29;100.00;99493.22;5100200;28;20032;-65
2024/03/02 06:21:00;;;;;;;58.80;23.33;;;;;;;8.42;100.00;99494.69;5099530;28;20035;-65
2024/03/02 06:23:26;;;;;;;60.72;22.38;;;;;;;8.36;100.00;99497.94;5100977;28;20055;-66
2024/03/02 06:25:52;;;;;;;57.95;21.27;;;;;;;8.32;100.00;99492.94;5098988;28;20044;-65
2024/03/02 06:28:17;;;;;;;53.75;20.50;;;;;;;8.24;100.00;99492.00;5100927;28;20088;-66
2024/03/02 06:30:43;;;;;;;60.75;23.20;;;;;;;8.39;100.00;99493.19;5098755;28;20077;-66
2024/03/02 06:33:09;;;;;;;58.35;23.25;;;;;;;8.32;100.00;99492.06;5099898;28;20086;-65
2024/03/02 06:35:35;;;;;;;66.43;24.17;;;;;;;8.37;100.00;99497.78;5099430;28;20226;-65
2024/03/02 06:38:01;;;;;;;56.30;21.60;;;;;;;8.55;100.00;99482.72;5100185;28;20060;-66
2024/03/02 06:40:27;;;;;;;50.97;22.60;;;;;;;8.51;100.00;99477.91;5091011;28;20107;-65
2024/03/02 06:42:52;;;;;;;57.90;21.42;;;;;;;8.37;100.00;99489.88;5098548;28;20101;-66
2024/03/02 06:45:18;;;;;;;52.22;19.95;;;;;;;8.40;100.00;99502.75;5099320;28;20040;-64
2024/03/02 06:47:43;;;;;;;53.92;22.50;;;;;;;8.39;100.00;99514.28;5098933;28;20036;-66
2024/03/02 06:50:09;;;;;;;54.10;22.92;;;;;;;8.40;100.00;99513.31;5099531;28;20322;-66
2024/03/02 06:52:35;;;;;;;52.67;20.83;;;;;;;8.41;100.00;99520.22;5098590;28;20385;-66
2024/03/02 06:55:01;;;;;;;53.72;24.48;;;;;;;8.38;100.00;99522.34;5099907;28;20028;-66
2024/03/02 06:57:27;;;;;;;53.67;19.88;;;;;;;8.26;100.00;99525.16;5098086;28;20340;-65
2024/03/02 06:59:54;;;;;;;61.30;21.98;;;;;;;8.37;100.00;99518.88;5099267;28;20040;-66
2024/03/02 07:02:20;;;;;;;60.70;22.00;;;;;;;8.51;100.00;99523.59;5097103;28;20385;-64
2024/03/02 07:04:46;;;;;;;54.28;20.02;;;;;;;8.44;100.00;99522.56;5098956;28;20036;-65
2024/03/02 07:07:12;;;;;;;57.15;22.05;;;;;;;8.41;100.00;99512.31;5097371;28;20039;-66
2024/03/02 07:09:38;;;;;;;48.38;22.05;;;;;;;8.47;100.00;99505.59;5097819;28;20107;-65
2024/03/02 07:12:04;;;;;;;45.00;19.65;;;;;;;8.79;100.00;99489.97;5099055;28;20214;-66
2024/03/02 07:17:14;;;;;;;48.70;19.95;;;;;;;9.07;100.00;99495.88;5098489;28;20039;-66
2024/03/02 07:19:39;;;;;;;51.05;19.48;;;;;;;9.22;100.00;99498.75;5098473;28;20338;-65
2024/03/02 07:22:08;;;;;;;52.15;21.42;;;;;;;9.16;100.00;99499.38;5098384;28;20048;-64
2024/03/02 07:24:42;;;;;;;50.55;20.10;;;;;;;9.24;100.00;99507.34;5098085;28;20051;-65
2024/03/02 07:27:12;;;;;;;51.72;22.75;;;;;;;9.44;100.00;99516.69;5098049;28;20089;-64
2024/03/02 07:29:38;;;;;;;44.03;19.33;;;;;;;9.47;100.00;99513.72;5098210;28;20260;-66
2024/03/02 07:32:04;;;;;;;45.28;17.67;;;;;;;9.28;100.00;99516.59;5098149;28;20032;-66
2024/03/02 07:34:29;;;;;;;39.90;16.48;;;;;;;9.32;100.00;99523.22;5097871;28;20040;-66
2024/03/02 07:36:55;;;;;;;38.70;15.93;;;;;;;9.53;100.00;99525.47;5096485;28;20075;-66
2024/03/02 07:39:21;;;;;;;36.88;15.77;;;;;;;9.39;100.00;99529.56;5096592;28;20202;-65
2024/03/02 07:41:47;;;;;;;41.75;15.27;;;;;;;9.32;100.00;99520.56;5098909;28;20036;-65
2024/03/02 07:44:14;;;;;;;39.58;17.35;;;;;;;9.59;100.00;99525.66;5096672;28;20111;-65
2024/03/02 07:46:43;;;;;;;47.38;19.65;;;;;;;9.57;100.00;99518.88;5099090;28;20869;-65
2024/03/02 07:49:09;;;;;;;41.40;16.67;;;;;;;9.76;100.00;99505.38;5092929;28;20362;-67
2024/03/02 07:51:35;;;;;;;40.83;17.17;;;;;;;9.85;100.00;99522.91;5098606;28;20333;-67
2024/03/02 07:54:00;;;;;;;42.35;18.60;;;;;;;9.91;100.00;99502.91;5088594;28;20195;-67
2024/03/02 07:56:26;;;;;;;56.13;23.52;;;;;;;9.96;100.00;99531.50;5098278;28;20106;-67
2024/03/02 07:58:52;;;;;;;39.05;15.70;;;;;;;9.63;100.00;99534.09;5097912;28;20073;-67
2024/03/02 08:01:18;;;;;;;37.78;15.20;;;;;;;9.72;100.00;99527.84;5098448;28;20059;-66
2024/03/02 08:03:50;;;;;;;42.25;16.88;;;;;;;9.88;100.00;99516.47;5098178;28;20051;-67
2024/03/02 08:06:21;;;;;;;41.30;16.75;;;;;;;9.96;100.00;99516.47;5097889;28;20036;-67
2024/03/02 08:08:47;;;;;;;42.30;18.58;;;;;;;9.78;100.00;99526.34;5091579;28;20040;-67
2024/03/02 08:11:12;;;;;;;42.90;18.38;;;;;;;9.60;100.00;99527.31;5095772;28;20349;-65
2024/03/02 08:13:38;;;;;;;40.95;15.48;;;;;;;9.49;100.00;99530.25;5097093;28;20307;-65
2024/03/02 08:16:07;;;;;;;40.90;18.38;;;;;;;9.49;100.00;99532.91;5096723;28;20044;-65
2024/03/02 08:18:33;;;;;;;37.63;15.95;;;;;;;9.53;100.00;99526.31;5097313;28;20241;-65
2024/03/02 08:20:58;;;;;;;29.55;14.05;;;;;;;9.22;100.00;99528.63;5096371;28;20048;-66
2024/03/02 08:23:24;;;;;;;30.90;13.88;;;;;;;9.15;100.00;99524.13;5098138;28;20260;-65
2024/03/02 08:25:49;;;;;;;33.65;14.32;;;;;;;8.97;100.00;99516.28;5095943;28;20081;-66
2024/03/02 08:28:15;;;;;;;31.05;14.35;;;;;;;8.81;100.00;99529.41;5097988;28;20035;-65
2024/03/02 08:30:40;;;;;;;34.00;13.38;;;;;;;8.86;100.00;99520.03;5097423;28;20042;-65
2024/03/02 08:33:06;;;;;;;32.45;14.63;;;;;;;8.82;100.00;99523.13;5097852;28;20391;-65
2024/03/02 08:35:36;;;;;;;35.38;13.68;;;;;;;8.92;100.00;99524.69;5096955;28;20036;-65
2024/03/02 08:38:02;;;;;;;36.25;15.43;;;;;;;8.92;100.00;99527.31;5096766;28;20032;-67
2024/03/02 08:40:28;;;;;;;35.38;15.60;;;;;;;8.96;100.00;99514.63;5096773;28;20040;-65
2024/03/02 08:42:54;;;;;;;33.88;15.25;;;;;;;9.08;100.00;99520.47;5096341;28;20085;-64
2024/03/02 08:45:20;;;;;;;39.88;17.30;;;;;;;9.17;100.00;99512.44;5096539;28;20063;-66
2024/03/02 08:47:46;;;;;;;40.45;17.05;;;;;;;9.23;100.00;99517.06;5096331;28;20040;-65
2024/03/02 08:50:11;;;;;;;40.72;16.23;;;;;;;9.12;100.00;99508.59;5096773;28;20079;-65
2024/03/02 08:52:37;;;;;;;33.45;16.02;;;;;;;9.11;100.00;99513.06;5096073;28;20074;-66
2024/03/02 08:55:02;;;;;;;44.72;16.55;;;;;;;9.33;100.00;99495.81;5096806;28;20023;-67
2024/03/02 08:57:28;;;;;;;31.70;14.85;;;;;;;9.36;100.00;99500.78;5097133;28;20028;-66
2024/03/02 08:59:54;;;;;;;37.55;16.17;;;;;;;9.42;100.00;99505.44;5098537;28;20081;-66
2024/03/02 09:02:19;;;;;;;35.95;17.35;;;;;;;9.29;100.00;99520.91;5096054;28;20053;-66
2024/03/02 09:04:45;;;;;;;37.85;17.38;;;;;;;9.28;100.00;99508.66;5097156;28;20161;-66
2024/03/02 09:07:10;;;;;;;33.88;15.55;;;;;;;9.32;100.00;99514.47;5095704;28;20054;-66
2024/03/02 09:09:36;;;;;;;39.38;15.05;;;;;;;9.23;100.00;99514.44;5096236;28;20698;-64
2024/03/02 09:12:01;;;;;;;36.30;15.73;;;;;;;9.16;100.00;99512.59;5095339;28;20032;-67
2024/03/02 09:14:27;;;;;;;36.05;15.93;;;;;;;9.29;100.00;99515.63;5095959;28;20111;-65
2024/03/02 09:16:52;;;;;;;36.20;15.65;;;;;;;9.23;100.00;99527.66;5094603;28;20078;-66
2024/03/02 09:19:18;;;;;;;34.20;14.60;;;;;;;9.27;100.00;99522.88;5095310;28;20048;-66
2024/03/02 09:21:44;;;;;;;37.55;15.85;;;;;;;9.25;100.00;99517.75;5095580;28;20032;-65
2024/03/02 09:24:10;;;;;;;39.70;14.57;;;;;;;9.21;100.00;99510.28;5095544;28;20104;-66
2024/03/02 09:26:35;;;;;;;37.30;15.40;;;;;;;9.20;100.00;99522.69;5095321;28;20035;-64
2024/03/02 09:29:01;;;;;;;34.45;15.45;;;;;;;9.33;100.00;99521.41;5095002;28;20256;-66
2024/03/02 09:31:26;;;;;;;39.70;16.80;;;;;;;9.68;100.00;99509.81;5095108;28;20361;-66
2024/03/02 09:33:52;;;;;;;37.35;16.60;;;;;;;9.92;100.00;99507.22;5097677;28;20044;-66
2024/03/02 09:36:18;;;;;;;36.17;15.65;;;;;;;9.82;100.00;99519.75;5099757;28;20325;-65
2024/03/02 09:38:44;;;;;;;33.72;14.70;;;;;;;10.02;100.00;99518.47;5097954;28;20040;-65
2024/03/02 09:41:09;;;;;;;31.45;13.27;;;;;;;10.05;100.00;99518.13;5099620;28;20028;-66
2024/03/02 09:43:35;;;;;;;34.97;15.18;;;;;;;9.85;100.00;99522.91;5097470;28;20238;-65
2024/03/02 09:46:01;;;;;;;35.28;15.50;;;;;;;9.86;100.00;99521.91;5098852;28;20101;-66
2024/03/02 09:48:27;;;;;;;32.08;14.48;;;;;;;9.93;100.00;99528.22;5098717;28;20238;-65
2024/03/02 09:50:52;;;;;;;36.22;14.40;;;;;;;10.15;100.00;99528.56;5099131;28;20032;-65
2024/03/02 09:53:18;;;;;;;33.70;13.43;;;;;;;10.27;100.00;99529.91;5098983;28;20059;-65
2024/03/02 09:55:47;;;;;;;34.50;15.80;;;;;;;9.99;100.00;99526.72;5098351;28;20080;-64
2024/03/02 09:58:12;;;;;;;35.03;15.40;;;;;;;10.20;100.00;99523.63;5098488;28;20024;-65
2024/03/02 10:00:38;;;;;;;35.55;14.32;;;;;;;10.07;100.00;99534.66;5098394;28;20181;-67
2024/03/02 10:03:05;;;;;;;36.13;14.45;;;;;;;10.05;100.00;99522.59;5098819;28;20070;-66
2024/03/02 10:05:31;;;;;;;35.67;14.77;;;;;;;10.16;100.00;99524.91;5097468;28;20149;-66
2024/03/02 10:08:03;;;;;;;29.85;14.60;;;;;;;10.31;100.00;99515.38;5098878;28;20036;-66
2024/03/02 10:10:39;;;;;;;35.38;15.38;;;;;;;10.51;100.00;99524.66;5098217;28;20060;-66
2024/03/02 10:13:09;;;;;;;34.83;15.63;;;;;;;10.38;100.00;99526.94;5099172;28;20078;-67
2024/03/02 10:15:37;;;;;;;36.47;16.25;;;;;;;10.55;100.00;99518.03;5096582;28;20036;-66
2024/03/02 10:18:08;;;;;;;40.20;18.30;;;;;;;10.41;100.00;99516.06;5095836;28;20047;-66
2024/03/02 10:20:34;;;;;;;36.35;15.57;;;;;;;10.47;100.00;99520.69;5096391;28;20331;-67
2024/03/02 10:23:17;;;;;;;36.28;15.52;;;;;;;10.54;100.00;99520.84;5097414;28;20039;-67
2024/03/02 10:25:43;;;;;;;33.42;15.80;;;;;;;10.28;100.00;99520.16;5097478;28;20241;-66
2024/03/02 10:28:09;;;;;;;37.97;15.77;;;;;;;10.35;100.00;99513.22;5097766;28;20038;-64
2024/03/02 10:30:35;;;;;;;37.05;15.98;;;;;;;10.27;100.00;99514.03;5097756;28;20264;-67
2024/03/02 10:33:02;;;;;;;35.58;15.32;;;;;;;10.55;100.00;99503.97;5097496;28;20392;-67
2024/03/02 10:35:27;;;;;;;34.70;16.30;;;;;;;10.71;100.00;99501.28;5097627;28;20390;-66
2024/03/02 10:37:53;;;;;;;35.38;17.10;;;;;;;10.60;100.00;99493.69;5097108;28;20111;-65
2024/03/02 10:40:22;;;;;;;39.55;16.48;;;;;;;10.86;100.00;99491.63;5098241;28;20028;-67
2024/03/02 10:42:49;;;;;;;38.15;16.85;;;;;;;11.03;100.00;99494.25;5098000;28;20450;-67
2024/03/02 10:45:16;;;;;;;32.90;14.70;;;;;;;11.09;100.00;99485.59;5097676;28;20028;-65
2024/03/02 10:47:43;;;;;;;36.10;15.48;;;;;;;11.05;100.00;99485.13;5097771;28;20110;-65
2024/03/02 10:50:09;;;;;;;34.42;16.13;;;;;;;11.15;100.00;99475.16;5097800;28;20104;-67
2024/03/02 10:52:35;;;;;;;36.78;16.35;;;;;;;11.20;100.00;99475.44;5097867;28;20204;-66
2024/03/02 10:55:01;;;;;;;37.30;17.25;;;;;;;11.22;100.00;99472.63;5098128;28;20508;-66
2024/03/02 10:57:33;;;;;;;37.55;18.15;;;;;;;11.38;100.00;99477.84;5098597;28;20059;-64
2024/03/02 11:00:02;;;;;;;39.03;15.85;;;;;;;11.42;100.00;99471.19;5097646;28;20048;-65
2024/03/02 11:02:30;;;;;;;38.92;16.65;;;;;;;11.37;100.00;99465.59;5098856;28;20028;-65
2024/03/02 11:04:59;;;;;;;35.25;15.60;;;;;;;11.48;100.00;99459.94;5098003;28;20040;-65
2024/03/02 11:07:27;;;;;;;39.17;17.83;;;;;;;11.58;100.00;99462.34;5098123;28;20233;-67
2024/03/02 11:10:05;;;;;;;36.85;16.75;;;;;;;11.73;100.00;99457.94;5098212;28;20040;-67
2024/03/02 11:12:52;;;;;;;38.78;17.52;;;;;;;11.77;100.00;99455.78;5098309;28;20040;-67
2024/03/02 11:15:19;;;;;;;38.78;17.55;;;;;;;11.80;100.00;99452.78;5097626;28;20032;-65
2024/03/02 11:17:46;;;;;;;42.10;18.25;;;;;;;11.85;100.00;99452.25;5097340;28;20032;-65
2024/03/02 11:20:13;;;;;;;35.90;17.77;;;;;;;11.85;100.00;99446.97;5097528;28;20077;-67